Time;durP1;ratioP1;P1;durP2;ratioP2;P2;SDS_P1;SDS_P2;PMS_P1;PMS_P2;Temp;Humidity;BMP_temperature;BMP_pressure;BME280_temperature;BME280_humidity;BME280_pressure;Samples;Min_cycle;Max_cycle;Signal;HPM_P1;HPM_P2
2023/10/31 00:01:43;;;;;;;;;;;;;;;16.07;56.77;101075.41;5087050;28;1976;-52
2023/10/31 00:04:09;;;;;;;;;;;;;;;16.83;57.90;101076.13;5089697;28;895;-52
2023/10/31 00:06:35;;;;;;;;;;;;;;;16.90;57.98;101076.75;5076577;28;1058;-50
2023/10/31 00:09:00;;;;;;;;;;;;;;;16.52;57.89;101078.72;5089938;28;1086;-50
2023/10/31 00:11:26;;;;;;;;;;;;;;;16.30;57.68;101076.13;5059120;28;1126;-50
2023/10/31 00:13:51;;;;;;;;;;;;;;;16.18;57.22;101070.84;5078713;28;1039;-51
2023/10/31 00:16:17;;;;;;;;;;;;;;;16.36;57.92;101064.91;5078842;28;856;-52
2023/10/31 00:18:42;;;;;;;;;;;;;;;17.40;57.22;101068.94;5076645;28;1051;-51
2023/10/31 00:21:08;;;;;;;;;;;;;;;16.71;57.94;101071.69;5085031;28;1046;-51
2023/10/31 00:23:34;;;;;;;;;;;;;;;16.44;57.55;101074.59;5096428;28;1902;-53
2023/10/31 00:25:59;;;;;;;;;;;;;;;16.27;57.40;101065.69;5096056;28;1077;-48
2023/10/31 00:28:25;;;;;;;;;;;;;;;16.19;56.85;101073.31;5095975;28;941;-51
2023/10/31 00:30:50;;;;;;;;;;;;;;;16.29;57.43;101072.56;5088172;28;1140;-51
2023/10/31 00:33:16;;;;;;;;;;;;;;;17.43;57.28;101063.75;5089604;28;1125;-48
2023/10/31 00:35:41;;;;;;;;;;;;;;;16.71;58.06;101051.66;5075944;28;1074;-48
2023/10/31 00:38:07;;;;;;;;;;;;;;;16.51;57.47;101057.84;5072817;28;1550;-49
2023/10/31 00:40:32;;;;;;;;;;;;;;;16.31;57.36;101051.16;5086269;28;1048;-48
2023/10/31 00:42:58;;;;;;;;;;;;;;;16.21;57.12;101048.34;5076656;28;1968;-45
2023/10/31 00:45:26;;;;;;;;;;;;;;;17.40;57.26;101057.94;5084601;28;1178;-51
2023/10/31 00:47:52;;;;;;;;;;;;;;;16.80;58.01;101049.22;5096200;28;1141;-50
2023/10/31 00:50:17;;;;;;;;;;;;;;;16.49;57.83;101049.06;5087970;28;1221;-48
2023/10/31 00:52:43;;;;;;;;;;;;;;;16.32;57.46;101039.09;5089144;28;1177;-49
2023/10/31 00:55:09;;;;;;;;;;;;;;;16.24;57.14;101042.34;5076509;28;1145;-50
2023/10/31 00:57:34;;;;;;;;;;;;;;;16.12;56.68;101034.31;5091085;28;1122;-48
2023/10/31 01:00:00;;;;;;;;;;;;;;;16.85;58.07;101032.78;5095695;28;1077;-49
2023/10/31 01:02:25;;;;;;;;;;;;;;;17.07;57.86;101036.16;5064599;28;1914;-52
2023/10/31 01:04:51;;;;;;;;;;;;;;;16.56;57.98;101033.19;5095320;28;831;-50
2023/10/31 01:07:17;;;;;;;;;;;;;;;16.41;57.68;101034.78;5093835;28;1130;-51
2023/10/31 01:09:43;;;;;;;;;;;;;;;16.24;57.11;101031.34;5066647;28;1356;-49
2023/10/31 01:12:10;;;;;;;;;;;;;;;16.34;57.93;101031.44;5062128;28;1322;-53
2023/10/31 01:14:36;;;;;;;;;;;;;;;17.24;57.34;101026.88;5075495;28;1082;-51
2023/10/31 01:17:01;;;;;;;;;;;;;;;16.62;58.17;101021.16;5061400;28;1283;-51
2023/10/31 01:19:27;;;;;;;;;;;;;;;16.40;57.95;101027.63;5076123;28;1054;-49
2023/10/31 01:21:53;;;;;;;;;;;;;;;16.32;57.23;101022.63;5091005;28;1961;-48
2023/10/31 01:24:19;;;;;;;;;;;;;;;16.19;57.11;101014.88;5087778;28;1057;-49
2023/10/31 01:26:44;;;;;;;;;;;;;;;16.07;56.90;101026.03;5092986;28;1070;-50
2023/10/31 01:29:10;;;;;;;;;;;;;;;16.02;56.62;101024.09;5087281;28;868;-49
2023/10/31 01:31:36;;;;;;;;;;;;;;;17.11;58.04;101017.22;5066325;28;1574;-48
2023/10/31 01:34:02;;;;;;;;;;;;;;;16.81;58.19;101021.47;5061618;28;1145;-53
2023/10/31 01:36:27;;;;;;;;;;;;;;;16.48;57.77;101019.97;5075201;28;1022;-49
2023/10/31 01:38:53;;;;;;;;;;;;;;;16.25;57.58;101014.63;5090322;28;2524;-49
2023/10/31 01:41:19;;;;;;;;;;;;;;;16.20;56.91;101022.00;5071017;28;1979;-50
2023/10/31 01:43:44;;;;;;;;;;;;;;;17.09;58.16;101013.91;5064513;28;2122;-48
2023/10/31 01:46:10;;;;;;;;;;;;;;;16.91;58.19;101017.97;5080122;28;1839;-50
2023/10/31 01:48:36;;;;;;;;;;;;;;;16.51;58.11;101013.94;5089555;28;2007;-49
2023/10/31 01:51:02;;;;;;;;;;;;;;;16.40;57.41;101018.56;5062898;28;2148;-47
2023/10/31 01:53:28;;;;;;;;;;;;;;;16.21;57.30;101010.75;5094044;28;2278;-47
2023/10/31 01:55:55;;;;;;;;;;;;;;;16.14;57.04;101001.13;5066809;28;1114;-45
2023/10/31 01:58:20;;;;;;;;;;;;;;;17.03;58.28;101009.50;5073430;28;1099;-49
2023/10/31 02:00:46;;;;;;;;;;;;;;;16.85;58.14;101002.56;5073512;28;1251;-45
2023/10/31 02:03:11;;;;;;;;;;;;;;;16.47;58.20;101008.16;5084556;28;1992;-46
2023/10/31 02:05:37;;;;;;;;;;;;;;;16.28;57.71;101005.03;5060725;28;1011;-48
2023/10/31 02:08:03;;;;;;;;;;;;;;;16.16;57.36;101007.16;5086235;28;1051;-44
2023/10/31 02:10:28;;;;;;;;;;;;;;;16.14;56.71;101003.88;5084208;28;1041;-46
2023/10/31 02:12:54;;;;;;;;;;;;;;;16.77;58.03;101001.16;5086147;28;996;-49
2023/10/31 02:15:19;;;;;;;;;;;;;;;17.40;57.43;100997.47;5066671;28;1393;-50
2023/10/31 02:17:49;;;;;;;;;;;;;;;16.69;58.14;101002.50;5078204;28;1397;-49
2023/10/31 02:20:14;;;;;;;;;;;;;;;16.44;57.88;101000.47;5079922;28;1542;-45
2023/10/31 02:22:40;;;;;;;;;;;;;;;16.31;57.49;101003.69;5097974;28;1988;-47
2023/10/31 02:25:18;;;;;;;;;;;;;;;16.22;56.94;101004.19;5097078;28;1121;-47
2023/10/31 02:27:43;;;;;;;;;;;;;;;17.22;57.92;101007.06;5087182;28;1011;-47
2023/10/31 02:30:09;;;;;;;;;;;;;;;16.90;58.14;100997.94;5098333;28;1086;-45
2023/10/31 02:32:34;;;;;;;;;;;;;;;16.53;58.07;100992.56;5097869;28;1023;-50
2023/10/31 02:35:00;;;;;;;;;;;;;;;16.39;57.40;100994.94;5084655;28;1042;-45
2023/10/31 02:37:25;;;;;;;;;;;;;;;16.28;57.16;100983.09;5098200;28;1102;-47
2023/10/31 02:39:51;;;;;;;;;;;;;;;16.81;58.22;100998.69;5084113;28;1030;-45
2023/10/31 02:42:16;;;;;;;;;;;;;;;17.31;57.45;100983.44;5097679;28;1905;-48
2023/10/31 02:44:42;;;;;;;;;;;;;;;16.73;58.00;100992.63;5094357;28;1065;-48
2023/10/31 02:47:07;;;;;;;;;;;;;;;16.48;57.66;100987.88;5059646;28;1080;-47
2023/10/31 02:49:33;;;;;;;;;;;;;;;16.39;57.30;100982.03;5076156;28;1210;-46
2023/10/31 02:51:58;;;;;;;;;;;;;;;16.24;57.01;100992.94;5087959;28;1014;-45
2023/10/31 02:54:24;;;;;;;;;;;;;;;16.17;56.83;100978.66;5076959;28;2544;-46
2023/10/31 02:56:49;;;;;;;;;;;;;;;16.60;58.14;100973.91;5077305;28;1042;-47
2023/10/31 02:59:15;;;;;;;;;;;;;;;17.22;57.58;100969.44;5079816;28;1078;-47
2023/10/31 03:01:40;;;;;;;;;;;;;;;16.63;58.19;100967.88;5070316;28;1901;-46
2023/10/31 03:04:06;;;;;;;;;;;;;;;16.44;57.62;100978.53;5089994;28;1118;-47
2023/10/31 03:06:31;;;;;;;;;;;;;;;16.31;57.08;100966.09;5088693;28;1133;-48
2023/10/31 03:08:58;;;;;;;;;;;;;;;16.18;56.97;100974.81;5090161;28;1031;-44
2023/10/31 03:11:23;;;;;;;;;;;;;;;16.16;57.09;100969.59;5085866;28;1043;-49
2023/10/31 03:13:49;;;;;;;;;;;;;;;17.41;57.29;100966.94;5083820;28;990;-48
2023/10/31 03:16:15;;;;;;;;;;;;;;;16.81;57.93;100973.97;5093555;28;1046;-48
2023/10/31 03:18:40;;;;;;;;;;;;;;;16.43;57.77;100969.44;5083478;28;1079;-48
2023/10/31 03:21:06;;;;;;;;;;;;;;;16.31;57.31;100977.06;5078926;28;1365;-46
2023/10/31 03:23:31;;;;;;;;;;;;;;;16.17;57.09;100968.50;5091132;28;1910;-48
2023/10/31 03:25:57;;;;;;;;;;;;;;;17.40;57.59;100970.81;5085278;28;1004;-48
2023/10/31 03:28:24;;;;;;;;;;;;;;;16.88;57.78;100969.91;5091320;28;1106;-48
2023/10/31 03:30:49;;;;;;;;;;;;;;;16.55;57.91;100971.13;5085081;28;1004;-46
2023/10/31 03:33:16;;;;;;;;;;;;;;;16.40;57.27;100974.66;5096921;28;1018;-49
2023/10/31 03:35:41;;;;;;;;;;;;;;;16.28;57.12;100966.63;5096757;28;1054;-47
2023/10/31 03:38:07;;;;;;;;;;;;;;;16.21;56.81;100966.03;5095453;28;1180;-45
2023/10/31 03:40:33;;;;;;;;;;;;;;;16.05;56.52;100963.22;5083102;28;1082;-50
2023/10/31 03:42:58;;;;;;;;;;;;;;;16.78;58.02;100961.63;5077196;28;1975;-48
2023/10/31 03:45:24;;;;;;;;;;;;;;;17.13;57.57;100960.06;5076633;28;1385;-49
2023/10/31 03:47:49;;;;;;;;;;;;;;;16.58;57.86;100948.66;5075669;28;1074;-47
2023/10/31 03:50:15;;;;;;;;;;;;;;;16.39;57.69;100951.03;5058188;28;1310;-47
2023/10/31 03:52:41;;;;;;;;;;;;;;;16.29;57.00;100951.81;5067374;28;2428;-45
2023/10/31 03:55:06;;;;;;;;;;;;;;;16.18;56.73;100950.94;5088434;28;1042;-46
2023/10/31 03:57:32;;;;;;;;;;;;;;;17.02;58.02;100964.72;5090630;28;1224;-44
2023/10/31 03:59:57;;;;;;;;;;;;;;;17.18;57.78;100962.84;5096668;28;1023;-47
2023/10/31 04:02:23;;;;;;;;;;;;;;;16.66;58.03;100970.09;5081545;28;1917;-46
2023/10/31 04:04:48;;;;;;;;;;;;;;;16.46;57.61;100970.81;5084579;28;1488;-49
2023/10/31 04:07:14;;;;;;;;;;;;;;;16.26;57.45;100963.34;5096247;28;1132;-47
2023/10/31 04:09:40;;;;;;;;;;;;;;;16.22;57.03;100962.22;5069814;28;1060;-45
2023/10/31 04:12:06;;;;;;;;;;;;;;;16.10;56.97;100958.84;5071654;28;1610;-44
2023/10/31 04:14:31;;;;;;;;;;;;;;;17.04;57.97;100968.03;5084303;28;1181;-49
2023/10/31 04:16:57;;;;;;;;;;;;;;;17.03;58.03;100960.06;5080714;28;1085;-51
2023/10/31 04:19:22;;;;;;;;;;;;;;;16.58;57.96;100960.44;5076736;28;1067;-50
2023/10/31 04:21:48;;;;;;;;;;;;;;;16.40;57.48;100953.50;5075848;28;1979;-49
2023/10/31 04:24:13;;;;;;;;;;;;;;;16.22;57.33;100959.47;5086572;28;2581;-48
2023/10/31 04:26:40;;;;;;;;;;;;;;;16.17;56.95;100962.19;5089671;28;1003;-46
2023/10/31 04:29:05;;;;;;;;;;;;;;;17.30;57.73;100959.00;5088150;28;843;-46
2023/10/31 04:31:31;;;;;;;;;;;;;;;16.72;57.99;100960.78;5089396;28;1019;-45
2023/10/31 04:33:56;;;;;;;;;;;;;;;16.45;57.89;100969.16;5076142;28;1109;-46
2023/10/31 04:36:22;;;;;;;;;;;;;;;16.30;57.51;100964.47;5089358;28;1003;-48
2023/10/31 04:38:47;;;;;;;;;;;;;;;16.22;57.06;100962.22;5095914;28;1058;-46
2023/10/31 04:41:13;;;;;;;;;;;;;;;16.13;56.96;100963.81;5088316;28;1122;-44
2023/10/31 04:43:41;;;;;;;;;;;;;;;17.20;58.05;100973.53;5088757;28;1905;-44
2023/10/31 04:46:07;;;;;;;;;;;;;;;16.92;57.86;100967.44;5088808;28;1045;-44
2023/10/31 04:48:32;;;;;;;;;;;;;;;16.63;58.31;100972.53;5076241;28;1132;-45
2023/10/31 04:50:58;;;;;;;;;;;;;;;16.41;57.89;100971.63;5076424;28;1102;-45
2023/10/31 04:53:23;;;;;;;;;;;;;;;16.30;57.42;100974.59;5093181;28;2552;-47
2023/10/31 04:55:49;;;;;;;;;;;;;;;16.19;57.24;100969.06;5094865;28;1129;-47
2023/10/31 04:58:14;;;;;;;;;;;;;;;17.01;58.81;100968.59;5075281;28;1132;-46
2023/10/31 05:00:41;;;;;;;;;;;;;;;17.31;58.00;100960.66;5077449;28;991;-48
2023/10/31 05:03:06;;;;;;;;;;;;;;;16.74;58.21;100966.00;5086561;28;1914;-48
2023/10/31 05:05:32;;;;;;;;;;;;;;;16.50;57.71;100965.63;5086381;28;1193;-48
2023/10/31 05:07:58;;;;;;;;;;;;;;;16.37;57.49;100965.03;5086246;28;1082;-50
2023/10/31 05:10:24;;;;;;;;;;;;;;;16.26;57.21;100963.34;5086492;28;1023;-49
2023/10/31 05:12:50;;;;;;;;;;;;;;;16.23;56.74;100963.88;5099487;28;1043;-48
2023/10/31 05:15:16;;;;;;;;;;;;;;;17.18;58.57;100972.97;5099696;28;1021;-47
2023/10/31 05:17:41;;;;;;;;;;;;;;;17.05;58.31;100969.66;5098694;28;1011;-46
2023/10/31 05:20:08;;;;;;;;;;;;;;;16.67;58.08;100974.47;5085972;28;1077;-45
2023/10/31 05:22:34;;;;;;;;;;;;;;;16.47;57.56;100979.91;5079241;28;2277;-46
2023/10/31 05:24:59;;;;;;;;;;;;;;;16.34;57.22;100979.28;5092571;28;1086;-47
2023/10/31 05:27:25;;;;;;;;;;;;;;;16.26;56.71;100985.28;5086373;28;1079;-46
2023/10/31 05:29:50;;;;;;;;;;;;;;;16.12;56.74;100984.09;5095143;28;1157;-45
2023/10/31 05:32:16;;;;;;;;;;;;;;;16.86;58.51;100995.97;5082505;28;1134;-50
2023/10/31 05:34:41;;;;;;;;;;;;;;;16.96;58.15;100979.53;5083529;28;1065;-48
2023/10/31 05:37:07;;;;;;;;;;;;;;;16.29;56.49;100984.75;5092597;28;1047;-51
2023/10/31 05:39:33;;;;;;;;;;;;;;;16.11;54.16;100983.28;5086977;28;1264;-47
2023/10/31 05:41:58;;;;;;;;;;;;;;;15.97;52.91;100984.84;5095398;28;1906;-41
2023/10/31 05:44:24;;;;;;;;;;;;;;;15.79;51.95;100981.41;5092568;28;1208;-43
2023/10/31 05:46:49;;;;;;;;;;;;;;;15.69;51.24;100982.13;5092323;28;1240;-42
2023/10/31 05:49:16;;;;;;;;;;;;;;;15.69;50.63;100987.63;5093048;28;1370;-43
2023/10/31 05:51:41;;;;;;;;;;;;;;;15.68;50.13;100991.47;5085205;28;1090;-41
2023/10/31 05:54:07;;;;;;;;;;;;;;;15.68;50.01;100990.63;5090443;28;2522;-45
2023/10/31 05:56:33;;;;;;;;;;;;;;;15.66;49.42;100981.84;5086915;28;1126;-42
2023/10/31 05:58:58;;;;;;;;;;;;;;;15.56;49.41;100988.06;5081315;28;1157;-44
2023/10/31 06:01:24;;;;;;;;;;;;;;;16.46;52.27;100991.97;5087205;28;1121;-45
2023/10/31 06:03:49;;;;;;;;;;;;;;;16.02;52.21;100987.59;5083626;28;1901;-43
2023/10/31 06:06:15;;;;;;;;;;;;;;;15.87;51.32;100982.84;5096915;28;1384;-43
2023/10/31 06:08:41;;;;;;;;;;;;;;;15.80;50.31;100991.31;5095166;28;1038;-43
2023/10/31 06:11:06;;;;;;;;;;;;;;;15.79;49.68;100997.03;5085927;28;1085;-40
2023/10/31 06:13:33;;;;;;;;;;;;;;;15.68;49.28;100996.94;5081085;28;1033;-45
2023/10/31 06:15:59;;;;;;;;;;;;;;;15.59;48.85;100993.03;5077488;28;1023;-41
2023/10/31 06:18:25;;;;;;;;;;;;;;;15.61;48.37;101001.81;5084145;28;1090;-45
2023/10/31 06:20:50;;;;;;;;;;;;;;;16.60;50.41;101001.34;5096909;28;1066;-42
2023/10/31 06:23:16;;;;;;;;;;;;;;;15.97;50.99;100993.06;5080777;28;2288;-45
2023/10/31 06:25:41;;;;;;;;;;;;;;;15.84;49.94;100988.88;5090236;28;1150;-42
2023/10/31 06:28:07;;;;;;;;;;;;;;;16.01;50.18;100981.28;5076905;28;1055;-40
2023/10/31 06:30:32;;;;;;;;;;;;;;;16.22;51.42;101000.63;5091712;28;1301;-46
2023/10/31 06:32:58;;;;;;;;;;;;;;;15.98;50.60;100992.81;5084493;28;1100;-43
2023/10/31 06:35:26;;;;;;;;;;;;;;;15.83;49.29;100984.47;5095884;28;1119;-44
2023/10/31 06:37:56;;;;;;;;;;;;;;;15.85;48.72;100979.53;5084026;28;1101;-45
2023/10/31 06:40:21;;;;;;;;;;;;;;;15.72;48.47;100970.66;5082923;28;987;-44
2023/10/31 06:42:47;;;;;;;;;;;;;;;15.68;48.13;100972.28;5082978;28;1909;-42
2023/10/31 06:45:12;;;;;;;;;;;;;;;15.71;49.01;100977.22;5089771;28;1074;-42
2023/10/31 06:47:38;;;;;;;;;;;;;;;16.53;51.35;100982.38;5089714;28;1027;-42
2023/10/31 06:50:03;;;;;;;;;;;;;;;16.10;50.85;100967.09;5076685;28;1084;-43
2023/10/31 06:52:29;;;;;;;;;;;;;;;15.88;49.76;100973.53;5040774;28;1276651;-41
2023/10/31 06:54:54;;;;;;;;;;;;;;;15.90;48.79;100971.34;5091071;28;1133;-41
2023/10/31 06:57:20;;;;;;;;;;;;;;;15.82;48.44;100969.09;5097659;28;999;-43
2023/10/31 06:59:46;;;;;;;;;;;;;;;15.83;48.18;100970.75;5073408;28;1150;-42
2023/10/31 07:02:12;;;;;;;;;;;;;;;15.73;48.16;100966.81;5088345;28;1909;-43
2023/10/31 07:04:37;;;;;;;;;;;;;;;15.65;47.96;100961.81;5077046;28;1429;-41
2023/10/31 07:07:03;;;;;;;;;;;;;;;16.54;49.68;100961.25;5077398;28;1233;-42
2023/10/31 07:09:29;;;;;;;;;;;;;;;16.02;49.83;100963.75;5077846;28;1060;-42
2023/10/31 07:11:54;;;;;;;;;;;;;;;16.16;50.25;100958.63;5077402;28;1059;-40
2023/10/31 07:14:20;;;;;;;;;;;;;;;16.67;51.77;100968.97;5077469;28;1031;-47
2023/10/31 07:16:45;;;;;;;;;;;;;;;16.28;50.91;100961.13;5095799;28;1166;-45
2023/10/31 07:19:11;;;;;;;;;;;;;;;16.07;50.04;100966.53;5082815;28;873;-43
2023/10/31 07:21:36;;;;;;;;;;;;;;;16.07;48.85;100972.03;5090787;28;1968;-44
2023/10/31 07:24:02;;;;;;;;;;;;;;;16.06;49.15;100964.88;5082096;28;2561;-42
2023/10/31 07:26:28;;;;;;;;;;;;;;;16.41;50.47;100970.78;5089463;28;1138;-46
2023/10/31 07:28:53;;;;;;;;;;;;;;;16.14;49.65;100968.22;5096922;28;1205;-41
2023/10/31 07:31:19;;;;;;;;;;;;;;;16.10;48.82;100972.56;5090020;28;948;-45
2023/10/31 07:33:45;;;;;;;;;;;;;;;15.99;48.62;100975.25;5096052;28;1234;-48
2023/10/31 07:36:10;;;;;;;;;;;;;;;15.93;48.10;100975.50;5083996;28;1130;-47
2023/10/31 07:38:36;;;;;;;;;;;;;;;16.73;49.47;100978.91;5097053;28;1141;-51
2023/10/31 07:41:01;;;;;;;;;;;;;;;16.19;49.80;100974.53;5084037;28;1066;-47
2023/10/31 07:43:27;;;;;;;;;;;;;;;17.04;50.34;100965.28;5085726;28;1965;-45
2023/10/31 07:45:52;;;;;;;;;;;;;;;16.88;51.51;100971.81;5076797;28;1070;-45
2023/10/31 07:48:18;;;;;;;;;;;;;;;16.46;50.85;100962.59;5083070;28;1090;-44
2023/10/31 07:50:43;;;;;;;;;;;;;;;16.26;50.04;100963.34;5084025;28;1216;-49
2023/10/31 07:53:09;;;;;;;;;;;;;;;16.28;48.99;100963.88;5091462;28;1284;-44
2023/10/31 07:55:34;;;;;;;;;;;;;;;16.18;48.44;100969.31;5089623;28;1289;-47
2023/10/31 07:58:00;;;;;;;;;;;;;;;16.23;48.25;100964.69;5086596;28;1145;-43
2023/10/31 08:00:25;;;;;;;;;;;;;;;16.54;50.09;100964.81;5090799;28;1142;-44
2023/10/31 08:02:51;;;;;;;;;;;;;;;16.33;49.61;100957.63;5077571;28;1905;-48
2023/10/31 08:05:16;;;;;;;;;;;;;;;16.22;48.72;100954.00;5076982;28;1150;-46
2023/10/31 08:07:42;;;;;;;;;;;;;;;16.08;48.32;100953.63;5081216;28;912;-44
2023/10/31 08:10:08;;;;;;;;;;;;;;;16.10;48.05;100948.69;5090045;28;1011;-44
2023/10/31 08:12:35;;;;;;;;;;;;;;;16.04;47.47;100939.63;5086957;28;1138;-44
2023/10/31 08:15:01;;;;;;;;;;;;;;;15.97;47.39;100950.00;5078085;28;1032;-48
2023/10/31 08:17:26;;;;;;;;;;;;;;;16.80;48.81;100942.13;5068060;28;1234;-47
2023/10/31 08:19:52;;;;;;;;;;;;;;;16.31;49.01;100943.31;5092385;28;888;-46
2023/10/31 08:22:17;;;;;;;;;;;;;;;16.22;48.46;100945.75;5096265;28;1918;-44
2023/10/31 08:24:42;;;;;;;;;;;;;;;16.21;48.12;100931.19;5078568;28;1209;-47
2023/10/31 08:27:08;;;;;;;;;;;;;;;16.17;47.64;100940.22;5096915;28;1017;-49
2023/10/31 08:29:33;;;;;;;;;;;;;;;16.00;47.56;100933.00;5084906;28;1138;-47
2023/10/31 08:31:59;;;;;;;;;;;;;;;16.01;47.13;100918.22;5076567;28;1125;-46
2023/10/31 08:34:24;;;;;;;;;;;;;;;16.81;48.52;100921.81;5084264;28;1301;-45
2023/10/31 08:36:52;;;;;;;;;;;;;;;16.36;49.01;100919.47;5091289;28;1205;-45
2023/10/31 08:39:18;;;;;;;;;;;;;;;16.19;48.29;100908.69;5087315;28;1075;-45
2023/10/31 08:41:52;;;;;;;;;;;;;;;16.21;47.97;100916.66;5095799;28;1984;-45
2023/10/31 08:44:18;;;;;;;;;;;;;;;16.10;47.72;100901.25;5089902;28;893;-45
2023/10/31 08:46:43;;;;;;;;;;;;;;;16.64;49.12;100909.13;5083049;28;1185;-42
2023/10/31 08:49:09;;;;;;;;;;;;;;;16.30;49.05;100900.50;5096287;28;1252;-43
2023/10/31 08:51:35;;;;;;;;;;;;;;;16.17;48.61;100899.09;5085177;28;1138;-45
2023/10/31 08:54:00;;;;;;;;;;;;;;;16.21;47.70;100895.53;5084022;28;1307;-43
2023/10/31 08:56:27;;;;;;;;;;;;;;;16.13;47.51;100882.34;5093621;28;1004;-44
2023/10/31 08:58:52;;;;;;;;;;;;;;;16.11;47.13;100890.00;5084317;28;1250;-46
2023/10/31 09:01:18;;;;;;;;;;;;;;;16.03;47.33;100888.63;5084419;28;1234;-41
2023/10/31 09:03:44;;;;;;;;;;;;;;;16.74;48.50;100887.16;5085924;28;1905;-45
2023/10/31 09:06:10;;;;;;;;;;;;;;;16.33;48.99;100878.03;5084267;28;1276;-43
2023/10/31 09:08:36;;;;;;;;;;;;;;;16.22;48.75;100880.72;5095243;28;937;-44
2023/10/31 09:11:03;;;;;;;;;;;;;;;16.14;47.93;100883.16;5095371;28;1109;-45
2023/10/31 09:13:29;;;;;;;;;;;;;;;16.08;47.91;100874.09;5096086;28;1042;-46
2023/10/31 09:15:54;;;;;;;;;;;;;;;16.60;48.31;100881.38;5093762;28;1038;-42
2023/10/31 09:18:20;;;;;;;;;;;;;;;16.71;50.73;100865.75;5086753;28;1052;-45
2023/10/31 09:20:46;;;;;;;;;;;;;;;16.36;50.13;100870.06;5076090;28;899;-42
2023/10/31 09:23:11;;;;;;;;;;;;;;;16.21;49.04;100856.28;5086073;28;1897;-43
2023/10/31 09:25:37;;;;;;;;;;;;;;;16.28;48.63;100853.31;5078161;28;1114;-49
2023/10/31 09:28:02;;;;;;;;;;;;;;;16.18;48.15;100845.88;5087162;28;1133;-44
2023/10/31 09:30:28;;;;;;;;;;;;;;;16.29;47.42;100852.22;5094400;28;1069;-43
2023/10/31 09:32:53;;;;;;;;;;;;;;;16.03;47.82;100842.00;5084044;28;885;-47
2023/10/31 09:35:19;;;;;;;;;;;;;;;16.01;47.46;100846.09;5081826;28;1132;-46
2023/10/31 09:37:48;;;;;;;;;;;;;;;16.10;47.28;100838.16;5096291;28;1153;-47
2023/10/31 09:40:14;;;;;;;;;;;;;;;16.23;47.62;100841.22;5093471;28;1035;-44
2023/10/31 09:42:39;;;;;;;;;;;;;;;16.88;49.67;100821.59;5083536;28;1972;-43
2023/10/31 09:45:05;;;;;;;;;;;;;;;16.50;49.68;100828.41;5089357;28;1113;-48
2023/10/31 09:47:30;;;;;;;;;;;;;;;16.38;49.09;100823.16;5060565;28;1397;-43
2023/10/31 09:49:56;;;;;;;;;;;;;;;16.29;48.65;100816.56;5076447;28;1214;-42
2023/10/31 09:52:22;;;;;;;;;;;;;;;16.14;48.20;100796.19;5090557;28;1138;-48
2023/10/31 09:54:48;;;;;;;;;;;;;;;16.16;47.80;100805.00;5075753;28;1109;-44
2023/10/31 09:57:14;;;;;;;;;;;;;;;16.11;47.83;100801.41;5088258;28;1214;-47
2023/10/31 09:59:40;;;;;;;;;;;;;;;16.08;47.28;100800.84;5097077;28;1075;-44
2023/10/31 10:02:05;;;;;;;;;;;;;;;16.08;47.47;100806.31;5087806;28;1986;-44
2023/10/31 10:04:30;;;;;;;;;;;;;;;16.02;47.26;100798.34;5085557;28;1128;-45
2023/10/31 10:06:59;;;;;;;;;;;;;;;16.28;47.80;100791.00;5090404;28;1406;-45
2023/10/31 10:09:25;;;;;;;;;;;;;;;16.63;49.10;100789.41;5092742;28;1185;-43
2023/10/31 10:11:52;;;;;;;;;;;;;;;16.40;48.81;100783.34;5088770;28;1154;-45
2023/10/31 10:14:17;;;;;;;;;;;;;;;16.21;48.30;100774.81;5084594;28;1042;-47
2023/10/31 10:16:43;;;;;;;;;;;;;;;17.02;49.38;100761.41;5098944;28;1124;-46
2023/10/31 10:19:16;;;;;;;;;;;;;;;16.61;49.54;100772.41;5097772;28;1401;-47
2023/10/31 10:21:48;;;;;;;;;;;;;;;16.43;48.85;100763.59;5088385;28;1984;-47
2023/10/31 10:24:14;;;;;;;;;;;;;;;16.29;48.79;100770.72;5089579;28;1210;-45
2023/10/31 10:26:39;;;;;;;;;;;;;;;16.27;48.00;100756.47;5078614;28;1050;-50
2023/10/31 10:29:05;;;;;;;;;;;;;;;16.21;47.66;100754.78;5086002;28;1050;-49
2023/10/31 10:31:30;;;;;;;;;;;;;;;16.18;47.61;100758.06;5085176;28;1058;-48
2023/10/31 10:33:56;;;;;;;;;;;;;;;16.14;47.62;100752.28;5078519;28;1142;-47
2023/10/31 10:36:22;;;;;;;;;;;;;;;16.12;47.04;100743.53;5091842;28;1067;-51
2023/10/31 10:38:47;;;;;;;;;;;;;;;16.98;48.32;100743.84;5067653;28;1048;-48
2023/10/31 10:41:13;;;;;;;;;;;;;;;16.43;49.14;100736.16;5084109;28;1058;-50
2023/10/31 10:43:39;;;;;;;;;;;;;;;16.22;49.00;100729.81;5060434;28;1996;-44
2023/10/31 10:46:04;;;;;;;;;;;;;;;16.30;48.34;100722.97;5074099;28;1055;-51
2023/10/31 10:48:30;;;;;;;;;;;;;;;16.17;48.00;100726.25;5060358;28;1121;-47
2023/10/31 10:51:06;;;;;;;;;;;;;;;16.15;47.47;100725.72;5074062;28;1189;-48
2023/10/31 10:53:37;;;;;;;;;;;;;;;16.06;47.47;100708.94;5077038;28;1083;-48
2023/10/31 10:56:09;;;;;;;;;;;;;;;16.18;47.11;100722.41;5061730;28;1113;-49
2023/10/31 10:58:39;;;;;;;;;;;;;;;16.06;47.28;100712.53;5057104;28;1085;-49
2023/10/31 11:01:04;;;;;;;;;;;;;;;16.07;47.37;100707.84;5074003;28;1188;-50
2023/10/31 11:03:30;;;;;;;;;;;;;;;16.18;47.46;100705.94;5078064;28;1914;-46
2023/10/31 11:05:55;;;;;;;;;;;;;;;16.08;47.37;100699.34;5072561;28;1058;-49
2023/10/31 11:08:21;;;;;;;;;;;;;;;16.00;47.58;100697.13;5059320;28;1078;-48
2023/10/31 11:10:47;;;;;;;;;;;;;;;16.02;47.27;100697.72;5071248;28;1058;-46
2023/10/31 11:13:12;;;;;;;;;;;;;;;16.03;47.33;100698.50;5057994;28;1142;-48
2023/10/31 11:15:38;;;;;;;;;;;;;;;15.93;47.55;100701.25;5070612;28;941;-48
2023/10/31 11:18:03;;;;;;;;;;;;;;;15.92;47.18;100694.94;5073297;28;1190;-48
2023/10/31 11:20:29;;;;;;;;;;;;;;;15.90;46.85;100683.41;5067241;28;1206;-47
2023/10/31 11:22:57;;;;;;;;;;;;;;;15.87;47.03;100689.44;5067303;28;1996;-44
2023/10/31 11:25:23;;;;;;;;;;;;;;;15.91;46.68;100683.13;5068202;28;1233;-50
2023/10/31 11:27:52;;;;;;;;;;;;;;;16.52;48.64;100666.97;5066231;28;1218;-47
2023/10/31 11:30:21;;;;;;;;;;;;;;;16.20;48.55;100673.56;5066790;28;1199;-49
2023/10/31 11:32:53;;;;;;;;;;;;;;;16.08;48.14;100660.94;5062723;28;1299;-51
2023/10/31 11:35:19;;;;;;;;;;;;;;;16.10;47.70;100654.38;5069783;28;1068;-51
2023/10/31 11:37:47;;;;;;;;;;;;;;;16.05;47.56;100655.19;5070904;28;1320;-49
2023/10/31 11:40:13;;;;;;;;;;;;;;;15.95;47.45;100649.69;5077371;28;1165;-43
2023/10/31 11:42:38;;;;;;;;;;;;;;;16.85;48.09;100642.78;5073079;28;1981;-44
2023/10/31 11:45:04;;;;;;;;;;;;;;;16.41;49.04;100635.97;5067912;28;893;-47
2023/10/31 11:47:46;;;;;;;;;;;;;;;16.25;48.41;100637.91;5058873;28;1039;-43
2023/10/31 11:50:12;;;;;;;;;;;;;;;16.16;48.08;100636.81;5072253;28;915;-47
2023/10/31 11:52:38;;;;;;;;;;;;;;;16.95;48.78;100652.94;5071739;28;1044;-42
2023/10/31 11:55:04;;;;;;;;;;;;;;;16.41;49.35;100645.06;5088956;28;1046;-47
2023/10/31 11:57:30;;;;;;;;;;;;;;;16.32;48.61;100632.16;5068281;28;1038;-45
2023/10/31 11:59:55;;;;;;;;;;;;;;;16.19;48.33;100628.88;5095195;28;804;-47
2023/10/31 12:02:21;;;;;;;;;;;;;;;16.11;48.26;100642.31;5075699;28;1992;-50
2023/10/31 12:04:46;;;;;;;;;;;;;;;16.09;47.83;100628.88;5075628;28;1026;-53
2023/10/31 12:07:12;;;;;;;;;;;;;;;16.11;47.33;100631.34;5081936;28;1023;-48
2023/10/31 12:09:47;;;;;;;;;;;;;;;16.12;47.15;100632.97;5095364;28;1007;-50
2023/10/31 12:12:12;;;;;;;;;;;;;;;15.99;47.15;100640.66;5085398;28;1097;-47
2023/10/31 12:14:38;;;;;;;;;;;;;;;15.96;46.90;100634.88;5075972;28;1019;-46
2023/10/31 12:17:04;;;;;;;;;;;;;;;15.89;47.09;100630.50;5086577;28;1026;-48
2023/10/31 12:19:30;;;;;;;;;;;;;;;16.00;46.71;100642.28;5096140;28;1085;-48
2023/10/31 12:21:56;;;;;;;;;;;;;;;15.96;46.75;100635.69;5078737;28;1982;-51
2023/10/31 12:24:21;;;;;;;;;;;;;;;16.72;48.10;100624.97;5093189;28;1074;-48
2023/10/31 12:26:47;;;;;;;;;;;;;;;16.41;49.05;100622.25;5084203;28;1051;-50
2023/10/31 12:29:16;;;;;;;;;;;;;;;16.27;48.60;100635.75;5095906;28;1091;-47
2023/10/31 12:31:48;;;;;;;;;;;;;;;16.16;48.16;100628.56;5081567;28;1316;-51
2023/10/31 12:34:14;;;;;;;;;;;;;;;16.08;47.53;100625.28;5089515;28;887;-49
2023/10/31 12:36:40;;;;;;;;;;;;;;;16.72;48.79;100612.06;5088482;28;1031;-51
2023/10/31 12:39:07;;;;;;;;;;;;;;;16.34;49.06;100618.97;5088035;28;1081;-48
2023/10/31 12:41:32;;;;;;;;;;;;;;;16.25;48.26;100615.97;5094733;28;1108;-48